createdAt,value
2023-11-30T00:02:31.465Z,87
2023-11-30T00:05:56.712Z,87
2023-11-30T00:09:21.944Z,87
2023-11-30T00:12:47.122Z,87
2023-11-30T00:16:12.354Z,88
2023-11-30T00:19:37.601Z,88
2023-11-30T00:23:02.788Z,88
2023-11-30T00:26:28.004Z,88
2023-11-30T00:29:53.257Z,88
2023-11-30T00:33:18.553Z,88
2023-11-30T00:36:43.716Z,88
2023-11-30T00:40:08.919Z,89
2023-11-30T00:43:34.141Z,89
2023-11-30T00:46:59.404Z,88
2023-11-30T00:50:24.629Z,88
2023-11-30T00:53:49.890Z,89
2023-11-30T00:57:15.206Z,88
2023-11-30T01:00:40.370Z,89
2023-11-30T01:04:05.694Z,88
2023-11-30T01:07:30.804Z,88
2023-11-30T01:10:56.138Z,87
2023-11-30T01:14:21.323Z,87
2023-11-30T01:17:46.596Z,85
2023-11-30T01:21:11.810Z,85
2023-11-30T01:24:37.007Z,85
2023-11-30T01:28:02.259Z,84
2023-11-30T01:31:27.473Z,85
2023-11-30T01:34:52.727Z,84
2023-11-30T01:38:17.971Z,84
2023-11-30T01:41:43.194Z,85
2023-11-30T01:45:08.447Z,85
2023-11-30T01:48:33.987Z,84
2023-11-30T01:51:58.861Z,85
2023-11-30T01:55:24.081Z,84
2023-11-30T01:58:49.304Z,85
2023-11-30T02:02:14.598Z,85
2023-11-30T02:05:39.760Z,86
2023-11-30T02:09:04.968Z,86
2023-11-30T02:12:30.223Z,86
2023-11-30T02:15:55.487Z,86
2023-11-30T02:19:20.703Z,86
2023-11-30T02:22:45.896Z,86
2023-11-30T02:26:11.115Z,85
2023-11-30T02:29:36.338Z,85
2023-11-30T02:33:01.620Z,85
2023-11-30T02:36:26.872Z,85
2023-11-30T02:39:52.042Z,85
2023-11-30T02:43:17.262Z,85
2023-11-30T02:46:42.475Z,84
2023-11-30T02:50:07.716Z,84
2023-11-30T02:53:33.009Z,83
2023-11-30T02:56:58.215Z,82
2023-11-30T03:00:23.536Z,83
2023-11-30T03:03:48.728Z,83
2023-11-30T03:07:13.904Z,83
2023-11-30T03:10:39.149Z,83
2023-11-30T03:14:04.363Z,83
2023-11-30T03:17:29.603Z,81
2023-11-30T03:20:54.822Z,79
2023-11-30T03:24:20.053Z,78
2023-11-30T03:27:45.297Z,77
2023-11-30T03:31:10.509Z,77
2023-11-30T03:34:35.706Z,78
2023-11-30T03:38:00.975Z,75
2023-11-30T03:41:26.210Z,74
2023-11-30T03:44:51.485Z,76
2023-11-30T03:48:16.754Z,76
2023-11-30T03:51:41.946Z,77
2023-11-30T03:55:07.145Z,78
2023-11-30T03:58:32.364Z,79
2023-11-30T04:01:57.656Z,76
2023-11-30T04:05:22.849Z,77
2023-11-30T04:08:48.060Z,77
2023-11-30T04:12:13.332Z,79
2023-11-30T04:15:38.496Z,80
2023-11-30T04:19:03.751Z,82
2023-11-30T04:22:28.919Z,83
2023-11-30T04:25:54.146Z,85
2023-11-30T04:29:19.372Z,84
2023-11-30T04:32:44.722Z,82
2023-11-30T04:36:09.985Z,80
2023-11-30T04:39:35.207Z,80
2023-11-30T04:43:00.447Z,79
2023-11-30T04:46:25.742Z,78
2023-11-30T04:49:50.954Z,78
2023-11-30T04:53:16.249Z,75
2023-11-30T04:56:41.470Z,73
2023-11-30T05:00:06.722Z,74
2023-11-30T05:03:32.073Z,75
2023-11-30T05:06:57.210Z,75
2023-11-30T05:10:22.466Z,74
2023-11-30T05:13:47.654Z,78
2023-11-30T05:17:12.897Z,78
2023-11-30T05:20:38.169Z,78
2023-11-30T05:24:03.437Z,79
2023-11-30T05:27:28.686Z,79
2023-11-30T05:30:53.941Z,77
2023-11-30T05:34:19.174Z,77
2023-11-30T05:37:44.397Z,76
2023-11-30T05:41:09.599Z,79
2023-11-30T05:44:34.860Z,79
2023-11-30T05:48:00.111Z,75
2023-11-30T05:51:25.259Z,77
2023-11-30T05:54:50.520Z,75
2023-11-30T05:58:15.674Z,78
2023-11-30T06:01:40.971Z,79
2023-11-30T06:05:06.172Z,81
2023-11-30T06:08:31.338Z,83
2023-11-30T06:11:56.575Z,83
2023-11-30T06:15:21.825Z,81
2023-11-30T06:18:47.123Z,83
2023-11-30T06:22:12.349Z,82
2023-11-30T06:25:37.576Z,80
2023-11-30T06:29:02.800Z,81
2023-11-30T06:32:28.035Z,81
2023-11-30T06:35:53.267Z,84
2023-11-30T06:39:18.505Z,86
2023-11-30T06:42:43.680Z,86
2023-11-30T06:46:08.945Z,88
2023-11-30T06:49:34.189Z,87
2023-11-30T06:52:59.460Z,85
2023-11-30T06:56:24.666Z,84
2023-11-30T06:59:49.873Z,84
2023-11-30T07:03:15.255Z,85
2023-11-30T07:06:40.375Z,85
2023-11-30T07:10:05.720Z,85
2023-11-30T07:13:30.788Z,84
2023-11-30T07:16:56.051Z,85
2023-11-30T07:20:21.277Z,86
2023-11-30T07:23:46.508Z,87
2023-11-30T07:27:11.782Z,87
2023-11-30T07:30:36.998Z,87
2023-11-30T07:34:02.217Z,86
2023-11-30T07:37:27.457Z,86
2023-11-30T07:40:52.688Z,86
2023-11-30T07:44:17.953Z,86
2023-11-30T07:47:43.136Z,85
2023-11-30T07:51:08.387Z,85
2023-11-30T07:54:33.669Z,86
2023-11-30T07:57:58.853Z,85
2023-11-30T08:01:24.098Z,85
2023-11-30T08:04:49.313Z,85
2023-11-30T08:08:14.564Z,85
2023-11-30T08:11:39.931Z,85
2023-11-30T08:15:05.022Z,85
2023-11-30T08:18:30.285Z,85
2023-11-30T08:21:55.401Z,84
2023-11-30T08:25:20.606Z,83
2023-11-30T08:28:45.833Z,83
2023-11-30T08:32:11.078Z,84
2023-11-30T08:35:36.287Z,85
2023-11-30T08:39:01.468Z,85
2023-11-30T08:42:26.666Z,85
2023-11-30T08:45:51.881Z,86
2023-11-30T08:49:16.999Z,86
2023-11-30T08:52:42.252Z,86
2023-11-30T08:56:07.439Z,85
2023-11-30T08:59:32.622Z,85
2023-11-30T09:02:57.855Z,84
2023-11-30T09:06:23.158Z,84
2023-11-30T09:09:50.471Z,84
2023-11-30T09:13:13.554Z,84
2023-11-30T09:16:38.800Z,84
2023-11-30T09:20:03.985Z,85
2023-11-30T09:23:29.180Z,85
2023-11-30T09:26:54.561Z,86
2023-11-30T09:30:19.773Z,86
2023-11-30T09:33:44.958Z,87
2023-11-30T09:37:10.165Z,87
2023-11-30T09:40:35.477Z,87
2023-11-30T09:44:00.754Z,87
2023-11-30T09:47:25.956Z,86
2023-11-30T09:50:53.250Z,86
2023-11-30T09:54:16.394Z,86
2023-11-30T09:57:41.636Z,86
2023-11-30T10:01:06.940Z,86
2023-11-30T10:04:32.130Z,86
2023-11-30T10:07:57.346Z,85
2023-11-30T10:11:22.584Z,85
2023-11-30T10:14:47.844Z,85
2023-11-30T10:18:13.235Z,85
2023-11-30T10:21:38.361Z,86
2023-11-30T10:25:03.600Z,86
2023-11-30T10:28:28.859Z,85
2023-11-30T10:31:54.074Z,85
2023-11-30T10:35:19.428Z,86
2023-11-30T10:38:44.583Z,86
2023-11-30T10:42:09.827Z,86
2023-11-30T10:45:35.104Z,86
2023-11-30T10:49:00.357Z,86
2023-11-30T10:52:25.610Z,87
2023-11-30T10:55:50.834Z,87
2023-11-30T10:59:16.106Z,87
2023-11-30T11:02:41.376Z,86
2023-11-30T11:06:06.676Z,86
2023-11-30T11:09:32.116Z,86
2023-11-30T11:12:57.156Z,85
2023-11-30T11:16:22.411Z,85
2023-11-30T11:19:47.628Z,85
2023-11-30T11:23:12.931Z,85
2023-11-30T11:26:38.200Z,85
2023-11-30T11:30:03.450Z,86
2023-11-30T11:33:28.696Z,87
2023-11-30T11:36:53.978Z,87
2023-11-30T11:40:19.180Z,87
2023-11-30T11:43:44.434Z,87
2023-11-30T11:47:09.642Z,87
2023-11-30T11:50:34.903Z,87
2023-11-30T11:54:00.153Z,85
2023-11-30T11:57:26.302Z,86
2023-11-30T12:00:50.646Z,86
2023-11-30T12:04:15.896Z,87
2023-11-30T12:07:41.060Z,87
2023-11-30T12:11:06.334Z,87
2023-11-30T12:14:31.581Z,88
2023-11-30T12:17:56.907Z,87
2023-11-30T12:21:22.176Z,87
2023-11-30T12:24:47.395Z,87
2023-11-30T12:28:12.684Z,87
2023-11-30T12:31:37.903Z,87
2023-11-30T12:35:03.161Z,86
2023-11-30T12:38:28.372Z,86
2023-11-30T12:41:53.623Z,86
2023-11-30T12:45:18.873Z,86
2023-11-30T12:48:44.147Z,86
2023-11-30T12:52:09.476Z,86
2023-11-30T12:55:34.782Z,85
2023-11-30T12:59:00.049Z,85
2023-11-30T13:02:25.452Z,84
2023-11-30T13:05:50.702Z,84
2023-11-30T13:09:15.973Z,83
2023-11-30T13:12:41.223Z,83
2023-11-30T13:16:06.460Z,84
2023-11-30T13:19:31.710Z,83
2023-11-30T13:22:57.051Z,82
2023-11-30T13:26:22.357Z,82
2023-11-30T13:29:47.607Z,82
2023-11-30T13:33:12.944Z,82
2023-11-30T13:36:38.143Z,82
2023-11-30T13:40:03.793Z,81
2023-11-30T13:43:29.036Z,80
2023-11-30T13:46:54.286Z,80
2023-11-30T13:50:25.305Z,79
2023-11-30T13:53:44.787Z,80
2023-11-30T13:57:10.804Z,80
2023-11-30T14:00:36.043Z,80
2023-11-30T14:04:01.360Z,81
2023-11-30T14:07:26.569Z,82
2023-11-30T14:10:51.895Z,82
2023-11-30T14:14:17.132Z,82
2023-11-30T14:17:42.485Z,82
2023-11-30T14:21:07.682Z,82
2023-11-30T14:24:32.936Z,83
2023-11-30T14:28:00.955Z,83
2023-11-30T14:31:23.497Z,83
2023-11-30T14:34:48.840Z,83
2023-11-30T14:38:13.978Z,83
2023-11-30T14:41:39.227Z,83
2023-11-30T14:45:04.465Z,82
2023-11-30T14:48:29.751Z,82
2023-11-30T14:51:55.023Z,83
2023-11-30T14:55:20.216Z,83
2023-11-30T14:58:45.483Z,83
2023-11-30T15:02:10.836Z,83
2023-11-30T15:05:36.007Z,83
2023-11-30T15:09:01.285Z,83
2023-11-30T15:45:56.466Z,85
2023-11-30T15:49:21.602Z,85
2023-11-30T15:52:46.929Z,85
2023-11-30T15:56:12.185Z,85
2023-11-30T15:59:37.435Z,85
2023-11-30T16:03:02.740Z,85
2023-11-30T16:06:28.182Z,86
2023-11-30T16:09:53.213Z,87
2023-11-30T16:13:18.509Z,87
2023-11-30T16:16:43.791Z,86
2023-11-30T16:20:09.071Z,85
2023-11-30T16:23:35.099Z,84
2023-11-30T16:27:00.369Z,83
2023-11-30T16:30:25.620Z,83
2023-11-30T16:33:50.833Z,82
2023-11-30T16:37:16.100Z,81
2023-11-30T16:40:41.359Z,82
2023-11-30T16:44:06.665Z,82
2023-11-30T16:47:31.961Z,81
2023-11-30T16:50:57.189Z,81
2023-11-30T16:54:22.564Z,82
2023-11-30T16:57:47.835Z,82
2023-11-30T17:01:13.163Z,83
2023-11-30T17:04:38.488Z,82
2023-11-30T17:08:03.782Z,82
2023-11-30T17:11:29.136Z,82
2023-11-30T17:14:55.193Z,82
2023-11-30T17:18:20.595Z,81
2023-11-30T17:21:48.496Z,81
2023-11-30T17:25:11.730Z,82
2023-11-30T17:28:37.056Z,82
2023-11-30T17:32:02.606Z,82
2023-11-30T17:35:27.991Z,83
2023-11-30T17:38:53.151Z,83
2023-11-30T17:42:18.498Z,83
2023-11-30T17:45:44.624Z,83
2023-11-30T17:49:09.846Z,83
2023-11-30T17:52:35.107Z,83
2023-11-30T17:56:00.364Z,84
2023-11-30T17:59:25.606Z,84
2023-11-30T18:02:50.882Z,85
2023-11-30T18:06:16.139Z,85
2023-11-30T18:09:41.376Z,85
2023-11-30T18:13:06.700Z,85
2023-11-30T18:16:31.991Z,86
2023-11-30T18:19:57.242Z,86
2023-11-30T18:23:22.464Z,86
2023-11-30T18:26:48.576Z,86
2023-11-30T18:30:13.009Z,86
2023-11-30T18:33:38.279Z,86
2023-11-30T18:37:03.613Z,86
2023-11-30T18:40:28.837Z,86
2023-11-30T18:43:54.038Z,86
2023-11-30T18:47:26.348Z,86
2023-11-30T18:50:51.620Z,85
2023-11-30T18:54:18.713Z,85
2023-11-30T18:57:42.212Z,83
2023-11-30T19:01:07.457Z,82
2023-11-30T19:04:32.689Z,82
2023-11-30T19:07:57.954Z,83
2023-11-30T19:11:23.225Z,83
2023-11-30T19:14:48.467Z,83
2023-11-30T19:18:13.963Z,83
2023-11-30T19:21:39.233Z,82
2023-11-30T19:25:04.449Z,81
2023-11-30T19:28:29.771Z,81
2023-11-30T19:31:55.062Z,81
2023-11-30T19:35:20.315Z,81
2023-11-30T19:38:45.613Z,81
2023-11-30T19:42:10.907Z,81
2023-11-30T19:45:36.193Z,82
2023-11-30T19:49:01.419Z,82
2023-11-30T19:52:26.661Z,82
2023-11-30T19:55:51.912Z,81
2023-11-30T19:59:17.153Z,81
2023-11-30T20:02:42.539Z,81
2023-11-30T20:06:07.708Z,82
2023-11-30T20:09:32.904Z,82
2023-11-30T20:12:58.150Z,80
2023-11-30T20:16:23.493Z,80
2023-11-30T20:19:48.684Z,81
2023-11-30T20:23:13.910Z,80
2023-11-30T20:26:39.168Z,79
2023-11-30T20:30:04.411Z,80
2023-11-30T20:33:29.653Z,78
2023-11-30T20:36:54.934Z,79
2023-11-30T20:40:20.139Z,79
2023-11-30T20:43:45.380Z,78
2023-11-30T20:47:10.636Z,79
2023-11-30T20:50:35.880Z,79
2023-11-30T20:54:01.169Z,77
2023-11-30T20:57:26.478Z,78
2023-11-30T21:00:51.821Z,79
2023-11-30T21:04:17.058Z,78
2023-11-30T21:07:42.260Z,80
2023-11-30T21:11:07.578Z,81
2023-11-30T21:14:32.857Z,81
2023-11-30T21:17:58.031Z,83
2023-11-30T21:21:23.249Z,82
2023-11-30T21:24:48.478Z,81
2023-11-30T21:28:13.644Z,82
2023-11-30T21:31:38.965Z,83
2023-11-30T21:35:04.209Z,83
2023-11-30T21:38:29.455Z,84
2023-11-30T21:41:54.704Z,84
2023-11-30T21:45:19.964Z,83
2023-11-30T21:48:45.237Z,83
2023-11-30T21:52:10.337Z,84
2023-11-30T21:55:35.542Z,84
2023-11-30T21:59:00.798Z,85
2023-11-30T22:02:26.053Z,85
2023-11-30T22:05:51.142Z,85
2023-11-30T22:09:16.404Z,85
2023-11-30T22:12:41.675Z,85
2023-11-30T22:16:11.498Z,85
2023-11-30T22:19:32.262Z,85
2023-11-30T22:22:57.434Z,85
2023-11-30T22:26:22.600Z,85
2023-11-30T22:29:47.788Z,85
2023-11-30T22:33:13.011Z,85
2023-11-30T22:36:38.393Z,85
2023-11-30T22:40:03.579Z,85
2023-11-30T22:43:28.767Z,84
2023-11-30T22:46:54.027Z,82
2023-11-30T22:50:19.208Z,82
2023-11-30T22:53:44.497Z,82
2023-11-30T22:57:09.793Z,82
2023-11-30T23:00:35.159Z,83
2023-11-30T23:04:00.311Z,83
2023-11-30T23:07:25.515Z,82
2023-11-30T23:10:50.780Z,80
2023-11-30T23:14:15.990Z,79
2023-11-30T23:17:41.248Z,78
2023-11-30T23:21:06.463Z,79
2023-11-30T23:24:32.046Z,83
2023-11-30T23:27:57.005Z,84
2023-11-30T23:31:22.213Z,83
2023-11-30T23:34:47.458Z,83
2023-11-30T23:38:12.648Z,84
2023-11-30T23:41:37.897Z,83
2023-11-30T23:45:03.185Z,84
2023-11-30T23:48:28.424Z,83
2023-11-30T23:51:53.669Z,84
2023-11-30T23:55:18.978Z,83
2023-11-30T23:58:44.136Z,83
